Terminal Aerodrome Forecast
Issued by NWS

Home | Current Version | Previous Version | Text Only | Print | Product List | Glossary On
Versions: 1 2 3 4 5 6 7 8 9 10 11 12 13 14 15 16 17 18
325
FTUS45 KPSR 290302 AAA
TAFBLH
TAF AMD
KBLH 290302Z 2903/2924 15005KT P6SM SKC
     FM290600 23004KT P6SM SKC
     FM291200 34004KT P6SM SKC
     FM291900 04006KT P6SM FEW120=

USA.gov is the U.S. government's official web portal to all federal, state and local government web resources and services.